sensor_id;sensor_type;location;lat;lon;timestamp;temperature;humidity
11855;DHT22;5987;53.140;8.904;2023-01-19T00:02:02;2.80;99.90
11855;DHT22;5987;53.140;8.904;2023-01-19T00:05:06;2.80;99.90
11855;DHT22;5987;53.140;8.904;2023-01-19T00:08:10;2.80;99.90
11855;DHT22;5987;53.140;8.904;2023-01-19T00:11:17;2.80;99.90
11855;DHT22;5987;53.140;8.904;2023-01-19T00:14:23;2.80;99.90
11855;DHT22;5987;53.140;8.904;2023-01-19T00:17:26;2.80;99.90
11855;DHT22;5987;53.140;8.904;2023-01-19T00:20:30;2.80;99.90
11855;DHT22;5987;53.140;8.904;2023-01-19T00:23:36;2.90;99.90
11855;DHT22;5987;53.140;8.904;2023-01-19T00:26:40;2.90;99.90
11855;DHT22;5987;53.140;8.904;2023-01-19T00:29:46;2.90;99.90
11855;DHT22;5987;53.140;8.904;2023-01-19T00:32:50;2.90;99.90
11855;DHT22;5987;53.140;8.904;2023-01-19T00:35:53;2.90;99.90
11855;DHT22;5987;53.140;8.904;2023-01-19T00:38:57;2.90;99.90
11855;DHT22;5987;53.140;8.904;2023-01-19T00:42:01;2.90;99.90
11855;DHT22;5987;53.140;8.904;2023-01-19T00:45:24;2.90;99.90
11855;DHT22;5987;53.140;8.904;2023-01-19T00:48:28;2.90;99.90
11855;DHT22;5987;53.140;8.904;2023-01-19T00:51:32;2.80;99.90
11855;DHT22;5987;53.140;8.904;2023-01-19T00:54:35;2.80;99.90
11855;DHT22;5987;53.140;8.904;2023-01-19T00:57:40;2.80;99.90
11855;DHT22;5987;53.140;8.904;2023-01-19T01:00:45;2.80;99.90
11855;DHT22;5987;53.140;8.904;2023-01-19T01:03:49;2.80;99.90
11855;DHT22;5987;53.140;8.904;2023-01-19T01:06:54;2.90;99.90
11855;DHT22;5987;53.140;8.904;2023-01-19T01:09:57;2.90;99.90
11855;DHT22;5987;53.140;8.904;2023-01-19T01:13:01;2.90;99.90
11855;DHT22;5987;53.140;8.904;2023-01-19T01:16:23;2.90;99.90
11855;DHT22;5987;53.140;8.904;2023-01-19T01:19:27;2.80;99.90
11855;DHT22;5987;53.140;8.904;2023-01-19T01:22:30;2.90;99.90
11855;DHT22;5987;53.140;8.904;2023-01-19T01:25:34;2.90;99.90
11855;DHT22;5987;53.140;8.904;2023-01-19T01:28:39;2.90;99.90
11855;DHT22;5987;53.140;8.904;2023-01-19T01:31:44;2.90;99.90
11855;DHT22;5987;53.140;8.904;2023-01-19T01:34:48;2.90;99.90
11855;DHT22;5987;53.140;8.904;2023-01-19T01:37:52;2.90;99.90
11855;DHT22;5987;53.140;8.904;2023-01-19T01:41:00;2.90;99.90
11855;DHT22;5987;53.140;8.904;2023-01-19T01:47:54;2.90;99.90
11855;DHT22;5987;53.140;8.904;2023-01-19T01:51:05;2.80;99.90
11855;DHT22;5987;53.140;8.904;2023-01-19T01:54:29;2.80;99.90
11855;DHT22;5987;53.140;8.904;2023-01-19T01:57:38;2.80;99.90
11855;DHT22;5987;53.140;8.904;2023-01-19T02:00:44;2.80;99.90
11855;DHT22;5987;53.140;8.904;2023-01-19T02:04:08;2.80;99.90
11855;DHT22;5987;53.140;8.904;2023-01-19T02:07:16;2.80;99.90
11855;DHT22;5987;53.140;8.904;2023-01-19T02:10:43;2.80;99.90
11855;DHT22;5987;53.140;8.904;2023-01-19T02:14:06;2.90;99.90
11855;DHT22;5987;53.140;8.904;2023-01-19T02:17:10;2.90;99.90
11855;DHT22;5987;53.140;8.904;2023-01-19T02:20:16;2.90;99.90
11855;DHT22;5987;53.140;8.904;2023-01-19T02:23:37;3.00;99.90
11855;DHT22;5987;53.140;8.904;2023-01-19T02:26:44;3.00;99.90
11855;DHT22;5987;53.140;8.904;2023-01-19T02:29:49;3.00;99.90
11855;DHT22;5987;53.140;8.904;2023-01-19T02:32:54;3.00;99.90
11855;DHT22;5987;53.140;8.904;2023-01-19T02:35:58;3.00;99.90
11855;DHT22;5987;53.140;8.904;2023-01-19T02:39:05;3.10;99.90
11855;DHT22;5987;53.140;8.904;2023-01-19T02:42:14;3.00;99.90
11855;DHT22;5987;53.140;8.904;2023-01-19T02:45:24;3.00;99.90
11855;DHT22;5987;53.140;8.904;2023-01-19T02:48:29;3.00;99.90
11855;DHT22;5987;53.140;8.904;2023-01-19T02:51:33;3.30;99.90
11855;DHT22;5987;53.140;8.904;2023-01-19T02:55:00;3.00;99.90
11855;DHT22;5987;53.140;8.904;2023-01-19T02:58:20;3.10;99.90
11855;DHT22;5987;53.140;8.904;2023-01-19T03:01:36;3.00;99.90
11855;DHT22;5987;53.140;8.904;2023-01-19T03:05:00;3.10;99.90
11855;DHT22;5987;53.140;8.904;2023-01-19T03:08:26;3.10;99.90
11855;DHT22;5987;53.140;8.904;2023-01-19T03:11:38;3.10;99.90
11855;DHT22;5987;53.140;8.904;2023-01-19T03:14:49;3.10;99.90
11855;DHT22;5987;53.140;8.904;2023-01-19T03:17:59;3.10;99.90
11855;DHT22;5987;53.140;8.904;2023-01-19T03:21:09;3.00;99.90
11855;DHT22;5987;53.140;8.904;2023-01-19T03:24:16;3.10;99.90
11855;DHT22;5987;53.140;8.904;2023-01-19T03:27:27;3.10;99.90
11855;DHT22;5987;53.140;8.904;2023-01-19T03:30:36;3.10;99.90
11855;DHT22;5987;53.140;8.904;2023-01-19T03:33:45;3.10;99.90
11855;DHT22;5987;53.140;8.904;2023-01-19T03:36:55;3.10;99.90
11855;DHT22;5987;53.140;8.904;2023-01-19T03:40:02;3.10;99.90
11855;DHT22;5987;53.140;8.904;2023-01-19T03:43:09;3.10;99.90
11855;DHT22;5987;53.140;8.904;2023-01-19T03:46:14;3.10;99.90
11855;DHT22;5987;53.140;8.904;2023-01-19T03:49:19;3.10;99.90
11855;DHT22;5987;53.140;8.904;2023-01-19T03:52:27;3.10;99.90
11855;DHT22;5987;53.140;8.904;2023-01-19T03:55:34;3.10;99.90
11855;DHT22;5987;53.140;8.904;2023-01-19T03:58:41;3.10;99.90
11855;DHT22;5987;53.140;8.904;2023-01-19T04:01:44;3.10;99.90
11855;DHT22;5987;53.140;8.904;2023-01-19T04:04:49;3.10;99.90
11855;DHT22;5987;53.140;8.904;2023-01-19T04:07:53;3.10;99.90
11855;DHT22;5987;53.140;8.904;2023-01-19T04:10:56;3.00;99.90
11855;DHT22;5987;53.140;8.904;2023-01-19T04:14:02;3.10;99.90
11855;DHT22;5987;53.140;8.904;2023-01-19T04:17:05;3.10;99.90
11855;DHT22;5987;53.140;8.904;2023-01-19T04:20:10;3.10;99.90
11855;DHT22;5987;53.140;8.904;2023-01-19T04:23:14;3.10;99.90
11855;DHT22;5987;53.140;8.904;2023-01-19T04:26:18;3.10;99.90
11855;DHT22;5987;53.140;8.904;2023-01-19T04:29:23;3.10;99.90
11855;DHT22;5987;53.140;8.904;2023-01-19T04:32:27;3.10;99.90
11855;DHT22;5987;53.140;8.904;2023-01-19T04:35:30;3.10;99.90
11855;DHT22;5987;53.140;8.904;2023-01-19T04:38:35;3.10;99.90
11855;DHT22;5987;53.140;8.904;2023-01-19T04:41:39;3.10;99.90
11855;DHT22;5987;53.140;8.904;2023-01-19T04:44:44;3.10;99.90
11855;DHT22;5987;53.140;8.904;2023-01-19T04:47:49;3.10;99.90
11855;DHT22;5987;53.140;8.904;2023-01-19T04:50:53;3.10;99.90
11855;DHT22;5987;53.140;8.904;2023-01-19T04:53:56;3.10;99.90
11855;DHT22;5987;53.140;8.904;2023-01-19T04:57:00;3.10;99.90
11855;DHT22;5987;53.140;8.904;2023-01-19T05:00:06;3.00;99.90
11855;DHT22;5987;53.140;8.904;2023-01-19T05:03:11;3.00;99.90
11855;DHT22;5987;53.140;8.904;2023-01-19T05:06:15;3.10;99.90
11855;DHT22;5987;53.140;8.904;2023-01-19T05:09:18;3.10;99.90
11855;DHT22;5987;53.140;8.904;2023-01-19T05:12:22;3.10;99.90
11855;DHT22;5987;53.140;8.904;2023-01-19T05:15:27;3.10;99.90
11855;DHT22;5987;53.140;8.904;2023-01-19T05:18:31;3.10;99.90
11855;DHT22;5987;53.140;8.904;2023-01-19T05:21:37;3.10;99.90
11855;DHT22;5987;53.140;8.904;2023-01-19T05:24:41;3.00;99.90
11855;DHT22;5987;53.140;8.904;2023-01-19T05:27:45;3.00;99.90
11855;DHT22;5987;53.140;8.904;2023-01-19T05:30:50;3.00;99.90
11855;DHT22;5987;53.140;8.904;2023-01-19T05:33:55;2.90;99.90
11855;DHT22;5987;53.140;8.904;2023-01-19T05:36:59;3.00;99.90
11855;DHT22;5987;53.140;8.904;2023-01-19T05:40:03;3.00;99.90
11855;DHT22;5987;53.140;8.904;2023-01-19T05:43:08;3.00;99.90
11855;DHT22;5987;53.140;8.904;2023-01-19T05:46:13;3.00;99.90
11855;DHT22;5987;53.140;8.904;2023-01-19T05:49:17;3.00;99.90
11855;DHT22;5987;53.140;8.904;2023-01-19T05:52:21;3.00;99.90
11855;DHT22;5987;53.140;8.904;2023-01-19T05:55:26;3.00;99.90
11855;DHT22;5987;53.140;8.904;2023-01-19T05:58:31;3.00;99.90
11855;DHT22;5987;53.140;8.904;2023-01-19T06:01:36;3.00;99.90
11855;DHT22;5987;53.140;8.904;2023-01-19T06:04:41;3.10;99.90
11855;DHT22;5987;53.140;8.904;2023-01-19T06:07:45;3.10;99.90
11855;DHT22;5987;53.140;8.904;2023-01-19T06:10:49;3.10;99.90
11855;DHT22;5987;53.140;8.904;2023-01-19T06:13:53;3.10;99.90
11855;DHT22;5987;53.140;8.904;2023-01-19T06:16:58;3.10;99.90
11855;DHT22;5987;53.140;8.904;2023-01-19T06:20:01;3.10;99.90
11855;DHT22;5987;53.140;8.904;2023-01-19T06:23:06;3.10;99.90
11855;DHT22;5987;53.140;8.904;2023-01-19T06:26:11;3.10;99.90
11855;DHT22;5987;53.140;8.904;2023-01-19T06:29:15;3.20;99.90
11855;DHT22;5987;53.140;8.904;2023-01-19T06:32:20;3.20;99.90
11855;DHT22;5987;53.140;8.904;2023-01-19T06:35:24;3.20;99.90
11855;DHT22;5987;53.140;8.904;2023-01-19T06:38:28;3.20;99.90
11855;DHT22;5987;53.140;8.904;2023-01-19T06:41:32;3.20;99.90
11855;DHT22;5987;53.140;8.904;2023-01-19T06:44:36;3.20;99.90
11855;DHT22;5987;53.140;8.904;2023-01-19T06:47:41;3.20;99.90
11855;DHT22;5987;53.140;8.904;2023-01-19T06:50:45;3.30;99.90
11855;DHT22;5987;53.140;8.904;2023-01-19T06:53:49;3.30;99.90
11855;DHT22;5987;53.140;8.904;2023-01-19T06:56:53;3.30;99.90
11855;DHT22;5987;53.140;8.904;2023-01-19T06:59:56;3.30;99.90
11855;DHT22;5987;53.140;8.904;2023-01-19T07:03:04;3.40;99.90
11855;DHT22;5987;53.140;8.904;2023-01-19T07:06:08;3.40;99.90
11855;DHT22;5987;53.140;8.904;2023-01-19T07:09:12;3.40;99.90
11855;DHT22;5987;53.140;8.904;2023-01-19T07:12:18;3.40;99.90
11855;DHT22;5987;53.140;8.904;2023-01-19T07:15:21;3.40;99.90
11855;DHT22;5987;53.140;8.904;2023-01-19T07:18:27;3.40;99.90
11855;DHT22;5987;53.140;8.904;2023-01-19T07:21:30;3.40;99.90
11855;DHT22;5987;53.140;8.904;2023-01-19T07:24:34;3.40;99.90
11855;DHT22;5987;53.140;8.904;2023-01-19T07:27:39;3.30;99.90
11855;DHT22;5987;53.140;8.904;2023-01-19T07:30:43;3.30;99.90
11855;DHT22;5987;53.140;8.904;2023-01-19T07:33:48;3.30;99.90
11855;DHT22;5987;53.140;8.904;2023-01-19T07:36:52;3.40;99.90
11855;DHT22;5987;53.140;8.904;2023-01-19T07:39:57;3.40;99.90
11855;DHT22;5987;53.140;8.904;2023-01-19T07:43:01;3.30;99.90
11855;DHT22;5987;53.140;8.904;2023-01-19T07:46:06;3.30;99.90
11855;DHT22;5987;53.140;8.904;2023-01-19T07:49:11;3.30;99.90
11855;DHT22;5987;53.140;8.904;2023-01-19T07:52:15;3.40;99.90
11855;DHT22;5987;53.140;8.904;2023-01-19T07:55:19;3.40;99.90
11855;DHT22;5987;53.140;8.904;2023-01-19T07:58:24;3.40;99.90
11855;DHT22;5987;53.140;8.904;2023-01-19T08:01:28;3.40;99.90
11855;DHT22;5987;53.140;8.904;2023-01-19T08:04:33;3.40;99.90
11855;DHT22;5987;53.140;8.904;2023-01-19T08:07:37;3.40;99.90
11855;DHT22;5987;53.140;8.904;2023-01-19T08:10:42;3.40;99.90
11855;DHT22;5987;53.140;8.904;2023-01-19T08:13:46;3.50;99.90
11855;DHT22;5987;53.140;8.904;2023-01-19T08:16:49;3.50;99.90
11855;DHT22;5987;53.140;8.904;2023-01-19T08:19:55;3.50;99.90
11855;DHT22;5987;53.140;8.904;2023-01-19T08:22:58;3.50;99.90
11855;DHT22;5987;53.140;8.904;2023-01-19T08:26:17;3.50;99.90
11855;DHT22;5987;53.140;8.904;2023-01-19T08:29:21;3.60;99.90
11855;DHT22;5987;53.140;8.904;2023-01-19T08:32:25;3.70;99.90
11855;DHT22;5987;53.140;8.904;2023-01-19T08:35:30;3.70;99.90
11855;DHT22;5987;53.140;8.904;2023-01-19T08:38:34;3.80;99.90
11855;DHT22;5987;53.140;8.904;2023-01-19T08:41:37;3.80;99.90
11855;DHT22;5987;53.140;8.904;2023-01-19T08:44:41;3.80;99.90
11855;DHT22;5987;53.140;8.904;2023-01-19T08:47:59;3.90;99.90
11855;DHT22;5987;53.140;8.904;2023-01-19T08:51:05;4.00;99.90
11855;DHT22;5987;53.140;8.904;2023-01-19T08:54:08;4.10;99.90
11855;DHT22;5987;53.140;8.904;2023-01-19T08:57:12;4.10;99.90
11855;DHT22;5987;53.140;8.904;2023-01-19T09:00:18;4.10;99.90
11855;DHT22;5987;53.140;8.904;2023-01-19T09:03:22;4.10;99.90
11855;DHT22;5987;53.140;8.904;2023-01-19T09:06:27;4.10;99.90
11855;DHT22;5987;53.140;8.904;2023-01-19T09:09:31;4.10;99.90
11855;DHT22;5987;53.140;8.904;2023-01-19T09:12:38;4.00;99.90
11855;DHT22;5987;53.140;8.904;2023-01-19T09:15:42;4.10;99.90
11855;DHT22;5987;53.140;8.904;2023-01-19T09:18:47;4.10;99.90
11855;DHT22;5987;53.140;8.904;2023-01-19T09:21:53;4.20;99.90
11855;DHT22;5987;53.140;8.904;2023-01-19T09:24:57;4.20;99.90
11855;DHT22;5987;53.140;8.904;2023-01-19T09:28:01;4.20;99.90
11855;DHT22;5987;53.140;8.904;2023-01-19T09:31:05;4.20;99.90
11855;DHT22;5987;53.140;8.904;2023-01-19T09:34:10;4.20;99.90
11855;DHT22;5987;53.140;8.904;2023-01-19T09:37:15;4.30;99.90
11855;DHT22;5987;53.140;8.904;2023-01-19T09:40:22;4.40;99.90
11855;DHT22;5987;53.140;8.904;2023-01-19T09:43:36;4.40;99.90
11855;DHT22;5987;53.140;8.904;2023-01-19T09:46:43;4.30;99.90
11855;DHT22;5987;53.140;8.904;2023-01-19T09:49:51;4.20;99.90
11855;DHT22;5987;53.140;8.904;2023-01-19T09:53:05;4.30;99.90
11855;DHT22;5987;53.140;8.904;2023-01-19T09:56:17;4.40;99.90
11855;DHT22;5987;53.140;8.904;2023-01-19T09:59:23;4.40;99.90
11855;DHT22;5987;53.140;8.904;2023-01-19T10:02:35;4.30;99.90
11855;DHT22;5987;53.140;8.904;2023-01-19T10:05:48;4.30;99.90
11855;DHT22;5987;53.140;8.904;2023-01-19T10:09:02;4.30;99.90
11855;DHT22;5987;53.140;8.904;2023-01-19T10:12:27;4.20;99.90
11855;DHT22;5987;53.140;8.904;2023-01-19T10:15:48;4.20;99.90
11855;DHT22;5987;53.140;8.904;2023-01-19T10:19:19;4.20;99.90
11855;DHT22;5987;53.140;8.904;2023-01-19T10:22:27;4.20;99.90
11855;DHT22;5987;53.140;8.904;2023-01-19T10:25:32;4.30;99.90
11855;DHT22;5987;53.140;8.904;2023-01-19T10:28:37;4.30;99.90
11855;DHT22;5987;53.140;8.904;2023-01-19T10:31:44;4.40;99.90
11855;DHT22;5987;53.140;8.904;2023-01-19T10:34:49;4.30;99.90
11855;DHT22;5987;53.140;8.904;2023-01-19T10:37:56;4.50;99.90
11855;DHT22;5987;53.140;8.904;2023-01-19T10:41:06;4.40;99.90
11855;DHT22;5987;53.140;8.904;2023-01-19T10:44:22;4.50;99.90
11855;DHT22;5987;53.140;8.904;2023-01-19T10:47:32;4.60;99.90
11855;DHT22;5987;53.140;8.904;2023-01-19T10:50:38;4.60;99.90
11855;DHT22;5987;53.140;8.904;2023-01-19T10:53:52;4.60;99.90
11855;DHT22;5987;53.140;8.904;2023-01-19T10:57:02;4.70;99.90
11855;DHT22;5987;53.140;8.904;2023-01-19T11:00:29;4.70;99.90
11855;DHT22;5987;53.140;8.904;2023-01-19T11:03:35;4.70;99.90
11855;DHT22;5987;53.140;8.904;2023-01-19T11:06:38;4.70;99.90
11855;DHT22;5987;53.140;8.904;2023-01-19T11:09:42;4.80;99.90
11855;DHT22;5987;53.140;8.904;2023-01-19T11:12:56;4.80;99.90
11855;DHT22;5987;53.140;8.904;2023-01-19T11:16:05;4.80;99.90
11855;DHT22;5987;53.140;8.904;2023-01-19T11:19:35;4.80;99.90
11855;DHT22;5987;53.140;8.904;2023-01-19T11:22:39;4.80;99.90
11855;DHT22;5987;53.140;8.904;2023-01-19T11:25:45;4.90;99.90
11855;DHT22;5987;53.140;8.904;2023-01-19T11:28:53;5.00;99.90
11855;DHT22;5987;53.140;8.904;2023-01-19T11:32:09;4.90;99.90
11855;DHT22;5987;53.140;8.904;2023-01-19T11:35:35;4.90;99.90
11855;DHT22;5987;53.140;8.904;2023-01-19T11:38:41;4.80;99.90
11855;DHT22;5987;53.140;8.904;2023-01-19T11:41:48;4.80;99.90
11855;DHT22;5987;53.140;8.904;2023-01-19T11:45:02;4.90;99.90
11855;DHT22;5987;53.140;8.904;2023-01-19T11:48:18;5.00;99.90
11855;DHT22;5987;53.140;8.904;2023-01-19T11:51:33;5.10;99.90
11855;DHT22;5987;53.140;8.904;2023-01-19T11:54:46;5.30;99.90
11855;DHT22;5987;53.140;8.904;2023-01-19T11:57:57;5.30;99.90
11855;DHT22;5987;53.140;8.904;2023-01-19T12:01:06;5.40;99.90
11855;DHT22;5987;53.140;8.904;2023-01-19T12:04:23;5.40;99.90
11855;DHT22;5987;53.140;8.904;2023-01-19T12:07:32;5.40;99.90
11855;DHT22;5987;53.140;8.904;2023-01-19T12:10:40;5.40;99.90
11855;DHT22;5987;53.140;8.904;2023-01-19T12:13:47;5.40;99.90
11855;DHT22;5987;53.140;8.904;2023-01-19T12:16:58;5.40;99.90
11855;DHT22;5987;53.140;8.904;2023-01-19T12:20:15;5.50;99.90
11855;DHT22;5987;53.140;8.904;2023-01-19T12:23:32;5.50;99.90
11855;DHT22;5987;53.140;8.904;2023-01-19T12:26:47;5.60;99.90
11855;DHT22;5987;53.140;8.904;2023-01-19T12:29:55;5.70;99.90
11855;DHT22;5987;53.140;8.904;2023-01-19T12:33:35;5.80;99.90
11855;DHT22;5987;53.140;8.904;2023-01-19T12:36:40;5.90;99.90
11855;DHT22;5987;53.140;8.904;2023-01-19T12:39:47;6.00;99.90
11855;DHT22;5987;53.140;8.904;2023-01-19T12:42:58;5.90;99.90
11855;DHT22;5987;53.140;8.904;2023-01-19T12:46:18;6.00;99.90
11855;DHT22;5987;53.140;8.904;2023-01-19T12:49:26;6.00;99.90
11855;DHT22;5987;53.140;8.904;2023-01-19T12:52:38;6.00;99.90
11855;DHT22;5987;53.140;8.904;2023-01-19T12:55:57;6.00;99.90
11855;DHT22;5987;53.140;8.904;2023-01-19T12:59:03;5.90;99.90
11855;DHT22;5987;53.140;8.904;2023-01-19T13:02:29;5.80;99.90
11855;DHT22;5987;53.140;8.904;2023-01-19T13:05:54;5.70;99.90
11855;DHT22;5987;53.140;8.904;2023-01-19T13:08:59;5.70;99.90
11855;DHT22;5987;53.140;8.904;2023-01-19T13:12:22;5.70;99.90
11855;DHT22;5987;53.140;8.904;2023-01-19T13:15:39;5.80;99.90
11855;DHT22;5987;53.140;8.904;2023-01-19T13:18:45;6.00;99.90
11855;DHT22;5987;53.140;8.904;2023-01-19T13:21:52;6.00;99.90
11855;DHT22;5987;53.140;8.904;2023-01-19T13:25:07;6.20;99.90
11855;DHT22;5987;53.140;8.904;2023-01-19T13:28:16;6.20;99.90
11855;DHT22;5987;53.140;8.904;2023-01-19T13:31:23;6.30;99.90
11855;DHT22;5987;53.140;8.904;2023-01-19T13:34:30;6.30;99.90
11855;DHT22;5987;53.140;8.904;2023-01-19T13:37:43;6.30;99.90
11855;DHT22;5987;53.140;8.904;2023-01-19T13:40:48;6.40;99.90
11855;DHT22;5987;53.140;8.904;2023-01-19T13:43:59;6.50;99.90
11855;DHT22;5987;53.140;8.904;2023-01-19T13:47:07;6.50;99.90
11855;DHT22;5987;53.140;8.904;2023-01-19T13:50:19;6.50;99.90
11855;DHT22;5987;53.140;8.904;2023-01-19T13:53:25;6.50;99.90
11855;DHT22;5987;53.140;8.904;2023-01-19T13:56:30;6.50;99.90
11855;DHT22;5987;53.140;8.904;2023-01-19T13:59:34;6.50;99.90
11855;DHT22;5987;53.140;8.904;2023-01-19T14:02:38;6.50;99.90
11855;DHT22;5987;53.140;8.904;2023-01-19T14:05:43;6.40;99.90
11855;DHT22;5987;53.140;8.904;2023-01-19T14:09:08;6.50;99.90
11855;DHT22;5987;53.140;8.904;2023-01-19T14:12:17;6.50;99.90
11855;DHT22;5987;53.140;8.904;2023-01-19T14:15:21;6.40;99.90
11855;DHT22;5987;53.140;8.904;2023-01-19T14:18:27;6.30;99.90
11855;DHT22;5987;53.140;8.904;2023-01-19T14:21:39;6.30;99.90
11855;DHT22;5987;53.140;8.904;2023-01-19T14:24:44;6.20;99.90
11855;DHT22;5987;53.140;8.904;2023-01-19T14:27:48;6.10;99.90
11855;DHT22;5987;53.140;8.904;2023-01-19T14:30:53;6.20;99.90
11855;DHT22;5987;53.140;8.904;2023-01-19T14:33:57;6.20;99.90
11855;DHT22;5987;53.140;8.904;2023-01-19T14:37:02;6.20;99.90
11855;DHT22;5987;53.140;8.904;2023-01-19T14:40:18;6.20;99.90
11855;DHT22;5987;53.140;8.904;2023-01-19T14:43:25;6.10;99.90
11855;DHT22;5987;53.140;8.904;2023-01-19T14:46:30;6.00;99.90
11855;DHT22;5987;53.140;8.904;2023-01-19T14:49:36;5.90;99.90
11855;DHT22;5987;53.140;8.904;2023-01-19T14:52:48;5.80;99.90
11855;DHT22;5987;53.140;8.904;2023-01-19T14:55:57;5.80;99.90
11855;DHT22;5987;53.140;8.904;2023-01-19T14:59:08;5.90;99.90
11855;DHT22;5987;53.140;8.904;2023-01-19T15:02:12;5.90;99.90
11855;DHT22;5987;53.140;8.904;2023-01-19T15:05:16;5.80;99.90
11855;DHT22;5987;53.140;8.904;2023-01-19T15:08:27;5.70;99.90
11855;DHT22;5987;53.140;8.904;2023-01-19T15:11:35;5.70;99.90
11855;DHT22;5987;53.140;8.904;2023-01-19T15:14:39;5.50;99.90
11855;DHT22;5987;53.140;8.904;2023-01-19T15:17:43;5.40;99.90
11855;DHT22;5987;53.140;8.904;2023-01-19T15:20:47;5.40;99.90
11855;DHT22;5987;53.140;8.904;2023-01-19T15:23:51;5.30;99.90
11855;DHT22;5987;53.140;8.904;2023-01-19T15:26:57;5.10;99.90
11855;DHT22;5987;53.140;8.904;2023-01-19T15:30:04;5.10;99.90
11855;DHT22;5987;53.140;8.904;2023-01-19T15:33:17;5.00;99.90
11855;DHT22;5987;53.140;8.904;2023-01-19T15:36:24;5.00;99.90
11855;DHT22;5987;53.140;8.904;2023-01-19T15:39:28;5.00;99.90
11855;DHT22;5987;53.140;8.904;2023-01-19T15:42:33;4.90;99.90
11855;DHT22;5987;53.140;8.904;2023-01-19T15:45:38;4.80;99.90
11855;DHT22;5987;53.140;8.904;2023-01-19T15:48:59;4.80;99.90
11855;DHT22;5987;53.140;8.904;2023-01-19T15:52:03;4.70;99.90
11855;DHT22;5987;53.140;8.904;2023-01-19T15:55:08;4.60;99.90
11855;DHT22;5987;53.140;8.904;2023-01-19T15:58:17;4.60;99.90
11855;DHT22;5987;53.140;8.904;2023-01-19T16:01:23;4.50;99.90
11855;DHT22;5987;53.140;8.904;2023-01-19T16:04:32;4.40;99.90
11855;DHT22;5987;53.140;8.904;2023-01-19T16:07:36;4.30;99.90
11855;DHT22;5987;53.140;8.904;2023-01-19T16:10:41;4.30;99.90
11855;DHT22;5987;53.140;8.904;2023-01-19T16:13:46;4.40;99.90
11855;DHT22;5987;53.140;8.904;2023-01-19T16:16:50;4.30;99.90
11855;DHT22;5987;53.140;8.904;2023-01-19T16:19:53;4.30;99.90
11855;DHT22;5987;53.140;8.904;2023-01-19T16:22:57;4.30;99.90
11855;DHT22;5987;53.140;8.904;2023-01-19T16:26:24;4.30;99.90
11855;DHT22;5987;53.140;8.904;2023-01-19T16:29:31;4.30;99.90
11855;DHT22;5987;53.140;8.904;2023-01-19T16:32:34;4.20;99.90
11855;DHT22;5987;53.140;8.904;2023-01-19T16:35:39;4.20;99.90
11855;DHT22;5987;53.140;8.904;2023-01-19T16:38:42;4.10;99.90
11855;DHT22;5987;53.140;8.904;2023-01-19T16:41:46;4.10;99.90
11855;DHT22;5987;53.140;8.904;2023-01-19T16:44:51;4.00;99.90
11855;DHT22;5987;53.140;8.904;2023-01-19T16:47:55;3.90;99.90
11855;DHT22;5987;53.140;8.904;2023-01-19T16:51:01;3.90;99.90
11855;DHT22;5987;53.140;8.904;2023-01-19T16:54:06;3.90;99.90
11855;DHT22;5987;53.140;8.904;2023-01-19T16:57:14;3.90;99.90
11855;DHT22;5987;53.140;8.904;2023-01-19T17:00:19;3.90;99.90
11855;DHT22;5987;53.140;8.904;2023-01-19T17:03:23;3.80;99.90
11855;DHT22;5987;53.140;8.904;2023-01-19T17:06:28;3.80;99.90
11855;DHT22;5987;53.140;8.904;2023-01-19T17:09:31;3.80;99.90
11855;DHT22;5987;53.140;8.904;2023-01-19T17:12:36;3.70;99.90
11855;DHT22;5987;53.140;8.904;2023-01-19T17:15:41;3.70;99.90
11855;DHT22;5987;53.140;8.904;2023-01-19T17:18:44;3.70;99.90
11855;DHT22;5987;53.140;8.904;2023-01-19T17:21:49;3.70;99.90
11855;DHT22;5987;53.140;8.904;2023-01-19T17:24:53;3.70;99.90
11855;DHT22;5987;53.140;8.904;2023-01-19T17:27:57;3.70;99.90
11855;DHT22;5987;53.140;8.904;2023-01-19T17:31:07;3.70;99.90
11855;DHT22;5987;53.140;8.904;2023-01-19T17:34:12;3.60;99.90
11855;DHT22;5987;53.140;8.904;2023-01-19T17:37:15;3.60;99.90
11855;DHT22;5987;53.140;8.904;2023-01-19T17:40:19;3.60;99.90
11855;DHT22;5987;53.140;8.904;2023-01-19T17:43:23;3.60;99.90
11855;DHT22;5987;53.140;8.904;2023-01-19T17:46:28;3.60;99.90
11855;DHT22;5987;53.140;8.904;2023-01-19T17:49:33;3.60;99.90
11855;DHT22;5987;53.140;8.904;2023-01-19T17:52:38;3.60;99.90
11855;DHT22;5987;53.140;8.904;2023-01-19T17:55:41;3.50;99.90
11855;DHT22;5987;53.140;8.904;2023-01-19T17:58:45;3.50;99.90
11855;DHT22;5987;53.140;8.904;2023-01-19T18:01:50;3.50;99.90
11855;DHT22;5987;53.140;8.904;2023-01-19T18:04:54;3.50;99.90
11855;DHT22;5987;53.140;8.904;2023-01-19T18:08:00;3.50;99.90
11855;DHT22;5987;53.140;8.904;2023-01-19T18:11:04;3.50;99.90
11855;DHT22;5987;53.140;8.904;2023-01-19T18:14:08;3.40;99.90
11855;DHT22;5987;53.140;8.904;2023-01-19T18:17:13;3.50;99.90
11855;DHT22;5987;53.140;8.904;2023-01-19T18:20:17;3.50;99.90
11855;DHT22;5987;53.140;8.904;2023-01-19T18:23:20;3.40;99.90
11855;DHT22;5987;53.140;8.904;2023-01-19T18:26:24;3.40;99.90
11855;DHT22;5987;53.140;8.904;2023-01-19T18:29:27;3.40;99.90
11855;DHT22;5987;53.140;8.904;2023-01-19T18:32:34;3.40;99.90
11855;DHT22;5987;53.140;8.904;2023-01-19T18:35:38;3.50;99.90
11855;DHT22;5987;53.140;8.904;2023-01-19T18:38:41;3.40;99.90
11855;DHT22;5987;53.140;8.904;2023-01-19T18:41:45;3.40;99.90
11855;DHT22;5987;53.140;8.904;2023-01-19T18:44:49;3.30;99.90
11855;DHT22;5987;53.140;8.904;2023-01-19T18:47:54;3.20;99.90
11855;DHT22;5987;53.140;8.904;2023-01-19T18:50:58;3.20;99.90
11855;DHT22;5987;53.140;8.904;2023-01-19T18:54:04;3.20;99.90
11855;DHT22;5987;53.140;8.904;2023-01-19T18:57:08;3.20;99.90
11855;DHT22;5987;53.140;8.904;2023-01-19T19:00:12;3.20;99.90
11855;DHT22;5987;53.140;8.904;2023-01-19T19:03:18;3.10;99.90
11855;DHT22;5987;53.140;8.904;2023-01-19T19:06:22;3.10;99.90
11855;DHT22;5987;53.140;8.904;2023-01-19T19:09:28;3.10;99.90
11855;DHT22;5987;53.140;8.904;2023-01-19T19:12:31;3.10;99.90
11855;DHT22;5987;53.140;8.904;2023-01-19T19:15:35;3.10;99.90
11855;DHT22;5987;53.140;8.904;2023-01-19T19:18:40;3.10;99.90
11855;DHT22;5987;53.140;8.904;2023-01-19T19:21:44;3.00;99.90
11855;DHT22;5987;53.140;8.904;2023-01-19T19:24:48;3.00;99.90
11855;DHT22;5987;53.140;8.904;2023-01-19T19:27:52;3.00;99.90
11855;DHT22;5987;53.140;8.904;2023-01-19T19:31:03;2.90;99.90
11855;DHT22;5987;53.140;8.904;2023-01-19T19:34:10;2.90;99.90
11855;DHT22;5987;53.140;8.904;2023-01-19T19:37:14;3.00;99.90
11855;DHT22;5987;53.140;8.904;2023-01-19T19:40:17;2.90;99.90
11855;DHT22;5987;53.140;8.904;2023-01-19T19:43:21;2.90;99.90
11855;DHT22;5987;53.140;8.904;2023-01-19T19:46:26;2.80;99.90
11855;DHT22;5987;53.140;8.904;2023-01-19T19:49:31;2.80;99.90
11855;DHT22;5987;53.140;8.904;2023-01-19T19:52:37;2.80;99.90
11855;DHT22;5987;53.140;8.904;2023-01-19T19:55:41;2.70;99.90
11855;DHT22;5987;53.140;8.904;2023-01-19T19:58:45;2.80;99.90
11855;DHT22;5987;53.140;8.904;2023-01-19T20:01:51;2.80;99.90
11855;DHT22;5987;53.140;8.904;2023-01-19T20:04:57;2.70;99.90
11855;DHT22;5987;53.140;8.904;2023-01-19T20:08:00;2.70;99.90
11855;DHT22;5987;53.140;8.904;2023-01-19T20:11:06;2.70;99.90
11855;DHT22;5987;53.140;8.904;2023-01-19T20:14:12;2.60;99.90
11855;DHT22;5987;53.140;8.904;2023-01-19T20:17:17;2.50;99.90
11855;DHT22;5987;53.140;8.904;2023-01-19T20:20:23;2.60;99.90
11855;DHT22;5987;53.140;8.904;2023-01-19T20:23:27;2.60;99.90
11855;DHT22;5987;53.140;8.904;2023-01-19T20:26:33;2.60;99.90